Campiña-No se requiere un especial cuidado respecto a la situación meteorológica.   -   No hay avisos

Informes METAR

 

LEZL - Sevilla, Spain
Distancia de la estación: ENE 8km
Actualización: 19/04/2021 05:30
Despejado
Despejado
 Viento de S
Viento: S 2 km/h
Temperatura: 15°C
Rocío: 8°C
Humedad: 63%
Barómetro: 1018 hPa
Resumen: Despejado
Visibilidad: mayor de 10 km
2021/04/19 03:30 LEZL 190330Z 18001KT CAVOK 15/08 Q1018 NOSIG
LEMO - Morón, Spain
Distancia de la estación: SE 43km
Actualización: 19/04/2021 06:00
Despejado
Despejado
 Viento de SSE
Viento: SSE 6 km/h
Temperatura: 12°C
Rocío: 9°C
Humedad: 82%
Barómetro: 1018 hPa
Resumen: Despejado
Visibilidad: mayor de 10 km
2021/04/19 04:00 LEMO 190400Z 16003KT 140V200 CAVOK 12/09 Q1018 NOSIG
LEJR - Jeréz, Spain
Distancia de la estación: S 71km
Actualización: 19/04/2021 06:00
Despejado
Despejado
 Viento de variable
Viento: variable 2 km/h
Temperatura: 14°C
Rocío: 12°C
Humedad: 88%
Barómetro: 1019 hPa
Resumen: Despejado
Visibilidad: mayor de 10 km
2021/04/19 04:00 LEJR 190400Z VRB01KT CAVOK 14/12 Q1019
 
LERT - Rota, Spain
Distancia de la estación: SSO 89km
Actualización: 19/04/2021 05:30
Despejado
Despejado
 Viento de variable
Viento: variable 4 km/h
Temperatura: 15°C
Rocío: 12°C
Humedad: 82%
Barómetro: 1019 hPa
Resumen: Despejado
Visibilidad: mayor de 10 km
2021/04/19 03:30 LERT 190330Z VRB02KT CAVOK 15/12 Q1019 NOSIG
LEMG - Málaga, Spain
Distancia de la estación: ESE 157km
Actualización: 19/04/2021 05:30
Muy nuboso
Muy nuboso
 Viento de NE
Viento: NE 6 km/h
Temperatura: 16°C
Rocío: 14°C
Humedad: 88%
Barómetro: 1020 hPa
Nubes: Muy nuboso
Visibilidad: 10 km
Detalles de las nubes: Poco nuboso 427 m
Muy nuboso 1067 m
2021/04/19 03:30 LEMG 190330Z 05003KT 020V080 9999 FEW014 BKN035 16/14 Q1020 NOSIG
LEBA - Córdoba, Spain
Distancia de la estación: ENE 115km
Actualización: 19/04/2021 05:30
Despejado
Despejado
 Viento de ENE
Viento: ENE 6 km/h
Temperatura: 10°C
Rocío: 6°C
Humedad: 76%
Barómetro: 1019 hPa
Resumen: Despejado
Visibilidad: mayor de 10 km
2021/04/19 03:30 LEBA 190330Z AUTO 06003KT 040V100 CAVOK 10/06 Q1019
 
LEGR - Granada, Spain
Distancia de la estación: E 198km
Actualización: 19/04/2021 05:30
Despejado
Despejado
 Viento de O
Viento: O 2 km/h
Temperatura: 6°C
Rocío: 5°C
Humedad: 93%
Barómetro: 1020 hPa
Resumen: Despejado
Visibilidad: mayor de 10 km
2021/04/19 03:30 LEGR 190330Z AUTO 27001KT CAVOK 06/05 Q1020
LEAM - Almería, Spain
Distancia de la estación: E 326km
Actualización: 19/04/2021 05:30
Despejado
Despejado
 Viento de N
Viento: N 7 km/h
Temperatura: 13°C
Rocío: 11°C
Humedad: 88%
Barómetro: 1020 hPa
Resumen: Despejado
Visibilidad: mayor de 10 km
2021/04/19 03:30 LEAM 190330Z 36004KT CAVOK 13/11 Q1020
LEMD - Madrid/Barajas, Spain
Distancia de la estación: NNE 402km
Actualización: 19/04/2021 05:30
Despejado
Despejado
 Viento de calm
Viento: Calma
Temperatura: 6°C
Rocío: 2°C
Humedad: 76%
Barómetro: 1019 hPa
Resumen: Despejado
Visibilidad: mayor de 10 km
2021/04/19 03:30 LEMD 190330Z 00000KT CAVOK 06/02 Q1019 NOSIG
 
LEVD - Valladolid, Spain
Distancia de la estación: N 492km
Actualización: 19/04/2021 05:30
Despejado
Despejado
 Viento de S
Viento: S 9 km/h
Temperatura: 7°C
Sensación térmica: 6°C
Rocío: 2°C
Humedad: 71%
Barómetro: 1019 hPa
Resumen: Despejado
Visibilidad: mayor de 10 km
2021/04/19 03:30 LEVD 190330Z AUTO 18005KT CAVOK 07/02 Q1019
LEBL - Barcelona, Spain
Distancia de la estación: NE 816km
Actualización: 19/04/2021 05:30
Poco nuboso
Poco nuboso
 Viento de NNO
Viento: NNO 11 km/h
Temperatura: 8°C
Sensación térmica: 6°C
Rocío: 5°C
Humedad: 82%
Barómetro: 1018 hPa
Nubes: Poco nuboso
Visibilidad: 10 km
Detalles de las nubes: Poco nuboso 762 m
2021/04/19 03:30 LEBL 190330Z 34006KT 9999 FEW025 08/05 Q1018 NOSIG
LEVC - Valencia, Spain
Distancia de la estación: ENE 535km
Actualización: 19/04/2021 05:30
Despejado
Despejado
 Viento de O
Viento: O 9 km/h
Temperatura: 7°C
Sensación térmica: 6°C
Rocío: 4°C
Humedad: 81%
Barómetro: 1018 hPa
Resumen: Despejado
Visibilidad: mayor de 10 km
2021/04/19 03:30 LEVC 190330Z 26005KT CAVOK 07/04 Q1018 NOSIG